createdAt,value
2017-11-21T00:00:04.017Z,6.43
2017-11-21T00:00:07.919Z,6.32
2017-11-21T00:00:12.271Z,6.43
2017-11-21T00:00:16.400Z,6.43
2017-11-21T00:00:20.640Z,6.3
2017-11-21T00:00:24.989Z,6.33
2017-11-21T00:00:29.235Z,6.46
2017-11-21T00:00:33.352Z,6.36
2017-11-21T00:00:37.475Z,6.39
2017-11-21T00:00:41.829Z,6.38
2017-11-21T00:00:45.847Z,6.45
2017-11-21T00:00:50.098Z,6.42
2017-11-21T00:00:54.219Z,6.32
2017-11-21T00:00:58.474Z,6.36
2017-11-21T00:01:02.703Z,6.38
2017-11-21T00:01:06.935Z,6.4
2017-11-21T00:01:11.173Z,6.4
2017-11-21T00:01:15.423Z,6.36
2017-11-21T00:01:19.542Z,6.3
2017-11-21T00:01:23.776Z,6.46
2017-11-21T00:01:28.026Z,6.35
2017-11-21T00:01:32.257Z,6.42
2017-11-21T00:01:36.498Z,6.4
2017-11-21T00:01:40.857Z,6.39
2017-11-21T00:01:45.206Z,6.42
2017-11-21T00:01:49.433Z,6.4
2017-11-21T00:01:53.670Z,6.4
2017-11-21T00:01:57.799Z,6.36
2017-11-21T00:02:02.082Z,6.43
2017-11-21T00:02:06.346Z,6.39
2017-11-21T00:02:10.709Z,6.33
2017-11-21T00:02:15.046Z,6.46
2017-11-21T00:02:19.395Z,6.35
2017-11-21T00:02:23.747Z,6.4
2017-11-21T00:02:27.768Z,6.43
2017-11-21T00:02:32.125Z,6.42
2017-11-21T00:02:36.254Z,6.39
2017-11-21T00:02:40.485Z,6.5
2017-11-21T00:02:44.728Z,6.35
2017-11-21T00:02:48.860Z,6.33
2017-11-21T00:02:53.198Z,6.35
2017-11-21T00:02:57.440Z,6.42
2017-11-21T00:03:02.142Z,6.45
2017-11-21T00:03:06.528Z,6.39
2017-11-21T00:03:10.865Z,6.39
2017-11-21T00:03:15.104Z,6.4
2017-11-21T00:03:19.449Z,6.48
2017-11-21T00:03:23.803Z,6.43
2017-11-21T00:03:28.156Z,6.42
2017-11-21T00:03:32.550Z,6.36
2017-11-21T00:03:36.926Z,6.43
2017-11-21T00:03:41.053Z,6.45
2017-11-21T00:03:45.302Z,6.4
2017-11-21T00:03:49.556Z,6.42
2017-11-21T00:03:53.907Z,6.42
2017-11-21T00:03:58.030Z,6.46
2017-11-21T00:04:02.471Z,6.43
2017-11-21T00:04:06.704Z,6.4
2017-11-21T00:04:10.715Z,6.45
2017-11-21T00:04:15.067Z,6.42
2017-11-21T00:04:19.422Z,6.39
2017-11-21T00:04:23.672Z,6.43
2017-11-21T00:04:27.686Z,6.42
2017-11-21T00:04:31.935Z,6.42
2017-11-21T00:04:36.165Z,6.48
2017-11-21T00:04:40.308Z,6.46
2017-11-21T00:04:44.442Z,6.4
2017-11-21T00:04:48.344Z,6.43
2017-11-21T00:04:52.689Z,6.43
2017-11-21T00:04:57.055Z,6.48
2017-11-21T00:05:00.962Z,6.43
2017-11-21T00:05:05.409Z,6.4
2017-11-21T00:05:09.651Z,6.42
2017-11-21T00:05:13.811Z,6.39
2017-11-21T00:05:18.052Z,6.46
2017-11-21T00:05:22.290Z,6.39
2017-11-21T00:05:26.539Z,6.46
2017-11-21T00:05:30.772Z,6.4
2017-11-21T00:05:35.003Z,6.48
2017-11-21T00:05:39.128Z,6.4
2017-11-21T00:05:43.487Z,6.53
2017-11-21T00:05:47.832Z,6.48
2017-11-21T00:05:52.061Z,6.46
2017-11-21T00:05:56.302Z,6.43
2017-11-21T00:06:00.645Z,6.51
2017-11-21T00:06:04.831Z,6.43
2017-11-21T00:06:09.069Z,6.38
2017-11-21T00:06:13.311Z,6.43
2017-11-21T00:06:17.546Z,6.45
2017-11-21T00:06:21.807Z,6.38
2017-11-21T00:06:26.179Z,6.48
2017-11-21T00:06:30.412Z,6.48
2017-11-21T00:06:34.774Z,6.43
2017-11-21T00:06:38.907Z,6.51
2017-11-21T00:06:43.149Z,6.48
2017-11-21T00:06:47.381Z,6.39
2017-11-21T00:06:51.624Z,6.42
2017-11-21T00:06:55.863Z,6.55
2017-11-21T00:07:00.218Z,6.45
2017-11-21T00:07:04.534Z,6.46
2017-11-21T00:07:08.668Z,6.5
2017-11-21T00:07:12.687Z,6.51
2017-11-21T00:07:17.040Z,6.48
2017-11-21T00:07:21.276Z,6.54
2017-11-21T00:07:25.657Z,6.53
2017-11-21T00:07:29.886Z,6.51
2017-11-21T00:07:33.900Z,6.51
2017-11-21T00:07:38.153Z,6.54
2017-11-21T00:07:42.501Z,6.46
2017-11-21T00:07:46.633Z,6.51
2017-11-21T00:07:50.988Z,6.5
2017-11-21T00:07:55.244Z,6.5
2017-11-21T00:07:59.375Z,6.58
2017-11-21T00:08:03.609Z,6.51
2017-11-21T00:08:07.964Z,6.45
2017-11-21T00:08:12.312Z,6.48
2017-11-21T00:08:16.646Z,6.51
2017-11-21T00:08:20.784Z,6.51
2017-11-21T00:08:25.023Z,6.54
2017-11-21T00:08:29.376Z,6.53
2017-11-21T00:08:33.615Z,6.53
2017-11-21T00:08:37.861Z,6.54
2017-11-21T00:08:42.205Z,6.51
2017-11-21T00:08:46.440Z,6.51
2017-11-21T00:08:50.682Z,6.51
2017-11-21T00:08:55.050Z,6.51
2017-11-21T00:08:59.191Z,6.54
2017-11-21T00:09:03.845Z,6.54
2017-11-21T00:09:08.084Z,6.54
2017-11-21T00:09:12.429Z,6.54
2017-11-21T00:09:16.665Z,6.51
2017-11-21T00:09:20.907Z,6.54
2017-11-21T00:09:25.139Z,6.53
2017-11-21T00:09:29.373Z,6.51
2017-11-21T00:09:33.652Z,6.51
2017-11-21T00:09:37.670Z,6.57
2017-11-21T00:09:41.794Z,6.5
2017-11-21T00:09:46.038Z,6.55
2017-11-21T00:09:50.276Z,6.57
2017-11-21T00:09:54.302Z,6.54
2017-11-21T00:09:58.540Z,6.51
2017-11-21T00:10:02.782Z,6.58
2017-11-21T00:10:06.905Z,6.55
2017-11-21T00:10:11.167Z,6.54
2017-11-21T00:10:15.344Z,6.57
2017-11-21T00:10:19.702Z,6.54
2017-11-21T00:10:24.053Z,6.54
2017-11-21T00:10:28.435Z,6.53
2017-11-21T00:10:32.554Z,6.53
2017-11-21T00:10:36.790Z,6.53
2017-11-21T00:10:41.166Z,6.46
2017-11-21T00:10:45.299Z,6.51
2017-11-21T00:10:49.529Z,6.55
2017-11-21T00:10:53.776Z,6.54
2017-11-21T00:10:58.147Z,6.51
2017-11-21T00:11:02.529Z,6.54
2017-11-21T00:11:06.649Z,6.57
2017-11-21T00:11:10.783Z,6.61
2017-11-21T00:11:14.942Z,6.51
2017-11-21T00:11:19.175Z,6.55
2017-11-21T00:11:23.418Z,6.57
2017-11-21T00:11:27.660Z,6.55
2017-11-21T00:11:31.890Z,6.53
2017-11-21T00:11:36.230Z,6.61
2017-11-21T00:11:40.486Z,6.6
2017-11-21T00:11:44.612Z,6.58
2017-11-21T00:11:48.736Z,6.55
2017-11-21T00:11:53.108Z,6.57
2017-11-21T00:11:57.470Z,6.61
2017-11-21T00:12:01.823Z,6.6
2017-11-21T00:12:05.954Z,6.51
2017-11-21T00:12:10.307Z,6.51
2017-11-21T00:12:14.658Z,6.58
2017-11-21T00:12:18.776Z,6.6
2017-11-21T00:12:22.796Z,6.6
2017-11-21T00:12:27.037Z,6.53
2017-11-21T00:12:31.171Z,6.53
2017-11-21T00:12:35.416Z,6.55
2017-11-21T00:12:39.772Z,6.54
2017-11-21T00:12:44.127Z,6.58
2017-11-21T00:12:48.370Z,6.57
2017-11-21T00:12:52.610Z,6.54
2017-11-21T00:12:56.952Z,6.65
2017-11-21T00:13:01.305Z,6.55
2017-11-21T00:13:05.665Z,6.58
2017-11-21T00:13:09.893Z,6.69
2017-11-21T00:13:14.125Z,6.6
2017-11-21T00:13:18.374Z,6.6
2017-11-21T00:13:22.649Z,6.63
2017-11-21T00:13:26.992Z,6.61
2017-11-21T00:13:31.115Z,6.54
2017-11-21T00:13:35.242Z,6.53
2017-11-21T00:13:39.365Z,6.6
2017-11-21T00:13:43.707Z,6.6
2017-11-21T00:13:47.947Z,6.55
2017-11-21T00:13:52.335Z,6.58
2017-11-21T00:13:56.575Z,6.57
2017-11-21T00:14:00.817Z,6.55
2017-11-21T00:14:05.481Z,6.63
2017-11-21T00:14:09.844Z,6.65
2017-11-21T00:14:14.080Z,6.64
2017-11-21T00:14:18.203Z,6.6
2017-11-21T00:14:22.451Z,6.57
2017-11-21T00:14:26.700Z,6.6
2017-11-21T00:14:30.941Z,6.58
2017-11-21T00:14:35.194Z,6.58
2017-11-21T00:14:39.313Z,6.6
2017-11-21T00:14:43.666Z,6.64
2017-11-21T00:14:47.908Z,6.6
2017-11-21T00:14:51.922Z,6.61
2017-11-21T00:14:56.165Z,6.64
2017-11-21T00:15:00.407Z,6.61
2017-11-21T00:15:04.660Z,6.68
2017-11-21T00:15:09.005Z,6.68
2017-11-21T00:15:13.246Z,6.61
2017-11-21T00:15:17.634Z,6.58
2017-11-21T00:15:21.867Z,6.68
2017-11-21T00:15:26.114Z,6.68
2017-11-21T00:15:30.354Z,6.71
2017-11-21T00:15:34.499Z,6.68
2017-11-21T00:15:38.836Z,6.71
2017-11-21T00:15:43.071Z,6.57
2017-11-21T00:15:47.322Z,6.58
2017-11-21T00:15:51.451Z,6.65
2017-11-21T00:15:55.465Z,6.69
2017-11-21T00:15:59.588Z,6.65
2017-11-21T00:16:03.666Z,6.64
2017-11-21T00:16:07.573Z,6.65
2017-11-21T00:16:11.697Z,6.65
2017-11-21T00:16:15.836Z,6.71
2017-11-21T00:16:20.206Z,6.58
2017-11-21T00:16:24.443Z,6.65
2017-11-21T00:16:28.574Z,6.63
2017-11-21T00:16:32.703Z,6.65
2017-11-21T00:16:37.058Z,6.68
2017-11-21T00:16:41.417Z,6.64
2017-11-21T00:16:45.808Z,6.69
2017-11-21T00:16:49.832Z,6.68
2017-11-21T00:16:53.957Z,6.64
2017-11-21T00:16:58.197Z,6.68
2017-11-21T00:17:02.214Z,6.65
2017-11-21T00:17:06.241Z,6.69
2017-11-21T00:17:10.281Z,6.71
2017-11-21T00:17:14.519Z,6.63
2017-11-21T00:17:18.741Z,6.68
2017-11-21T00:17:22.992Z,6.64
2017-11-21T00:17:27.358Z,6.69
2017-11-21T00:17:31.491Z,6.65
2017-11-21T00:17:35.726Z,6.71
2017-11-21T00:17:39.977Z,6.71
2017-11-21T00:17:44.215Z,6.72
2017-11-21T00:17:48.569Z,6.71
2017-11-21T00:17:52.714Z,6.69
2017-11-21T00:17:57.093Z,6.71
2017-11-21T00:18:01.447Z,6.68
2017-11-21T00:18:05.806Z,6.69
2017-11-21T00:18:09.833Z,6.72
2017-11-21T00:18:14.193Z,6.72
2017-11-21T00:18:18.542Z,6.65
2017-11-21T00:18:22.688Z,6.73
2017-11-21T00:18:26.971Z,6.65
2017-11-21T00:18:31.098Z,6.65
2017-11-21T00:18:35.230Z,6.68
2017-11-21T00:18:39.690Z,6.65
2017-11-21T00:18:43.815Z,6.68
2017-11-21T00:18:47.950Z,6.65
2017-11-21T00:18:52.069Z,6.65
2017-11-21T00:18:56.106Z,6.64
2017-11-21T00:19:00.348Z,6.68
2017-11-21T00:19:05.098Z,6.76
2017-11-21T00:19:09.437Z,6.79
2017-11-21T00:19:13.821Z,6.64
2017-11-21T00:19:18.050Z,6.64
2017-11-21T00:19:22.182Z,6.65
2017-11-21T00:19:26.313Z,6.68
2017-11-21T00:19:30.653Z,6.64
2017-11-21T00:19:34.882Z,6.76
2017-11-21T00:19:39.130Z,6.72
2017-11-21T00:19:43.471Z,6.76
2017-11-21T00:19:47.607Z,6.69
2017-11-21T00:19:51.848Z,6.65
2017-11-21T00:19:55.978Z,6.76
2017-11-21T00:20:00.111Z,6.75
2017-11-21T00:20:04.621Z,6.73
2017-11-21T00:20:08.993Z,6.76
2017-11-21T00:20:13.125Z,6.75
2017-11-21T00:20:17.379Z,6.79
2017-11-21T00:20:21.780Z,6.78
2017-11-21T00:20:26.010Z,6.79
2017-11-21T00:20:30.244Z,6.82
2017-11-21T00:20:34.486Z,6.76
2017-11-21T00:20:38.724Z,6.71
2017-11-21T00:20:43.074Z,6.81
2017-11-21T00:20:47.427Z,6.76
2017-11-21T00:20:51.560Z,6.78
2017-11-21T00:20:55.576Z,6.73
2017-11-21T00:20:59.911Z,6.79
2017-11-21T00:21:04.045Z,6.81
2017-11-21T00:21:08.398Z,6.78
2017-11-21T00:21:12.638Z,6.72
2017-11-21T00:21:16.769Z,6.76
2017-11-21T00:21:21.007Z,6.79
2017-11-21T00:21:25.241Z,6.71
2017-11-21T00:21:29.269Z,6.75
2017-11-21T00:21:33.643Z,6.73
2017-11-21T00:21:37.880Z,6.72
2017-11-21T00:21:42.137Z,6.76
2017-11-21T00:21:46.382Z,6.78
2017-11-21T00:21:50.622Z,6.71
2017-11-21T00:21:54.852Z,6.79
2017-11-21T00:21:59.208Z,6.79
2017-11-21T00:22:03.526Z,6.83
2017-11-21T00:22:07.656Z,6.76
2017-11-21T00:22:12.011Z,6.75
2017-11-21T00:22:16.297Z,6.82
2017-11-21T00:22:20.544Z,6.79
2017-11-21T00:22:24.782Z,6.79
2017-11-21T00:22:29.025Z,6.78
2017-11-21T00:22:33.397Z,6.82
2017-11-21T00:22:37.409Z,6.75
2017-11-21T00:22:41.645Z,6.79
2017-11-21T00:22:45.669Z,6.72
2017-11-21T00:22:50.018Z,6.78
2017-11-21T00:22:54.361Z,6.72
2017-11-21T00:22:58.495Z,6.78
2017-11-21T00:23:02.883Z,6.78
2017-11-21T00:23:07.122Z,6.78
2017-11-21T00:23:11.363Z,6.73
2017-11-21T00:23:15.716Z,6.76
2017-11-21T00:23:19.835Z,6.79
2017-11-21T00:23:24.181Z,6.87
2017-11-21T00:23:28.205Z,6.73
2017-11-21T00:23:32.498Z,6.79
2017-11-21T00:23:36.840Z,6.81
2017-11-21T00:23:41.085Z,6.79
2017-11-21T00:23:45.216Z,6.71
2017-11-21T00:23:49.445Z,6.86
2017-11-21T00:23:53.797Z,6.79
2017-11-21T00:23:58.159Z,6.86
2017-11-21T00:24:02.604Z,6.72
2017-11-21T00:24:06.839Z,6.78
2017-11-21T00:24:11.203Z,6.9
2017-11-21T00:24:15.443Z,6.78
2017-11-21T00:24:19.680Z,6.87
2017-11-21T00:24:23.937Z,6.83
2017-11-21T00:24:28.181Z,6.75
2017-11-21T00:24:32.412Z,6.82
2017-11-21T00:24:36.647Z,6.73
2017-11-21T00:24:40.900Z,6.81
2017-11-21T00:24:45.018Z,6.82
2017-11-21T00:24:49.377Z,6.75
2017-11-21T00:24:53.621Z,6.78
2017-11-21T00:24:57.748Z,6.87
2017-11-21T00:25:02.001Z,6.83
2017-11-21T00:25:06.263Z,6.83
2017-11-21T00:25:10.279Z,6.87
2017-11-21T00:25:14.630Z,6.79
2017-11-21T00:25:18.871Z,6.81
2017-11-21T00:25:23.111Z,6.87
2017-11-21T00:25:27.246Z,6.81
2017-11-21T00:25:31.581Z,6.87
2017-11-21T00:25:35.715Z,6.81
2017-11-21T00:25:39.957Z,6.78
2017-11-21T00:25:44.189Z,6.86
2017-11-21T00:25:48.434Z,6.79
2017-11-21T00:25:52.569Z,6.81
2017-11-21T00:25:56.807Z,6.87
2017-11-21T00:26:01.040Z,6.78
2017-11-21T00:26:05.418Z,6.87
2017-11-21T00:26:09.763Z,6.82
2017-11-21T00:26:13.891Z,6.86
2017-11-21T00:26:18.021Z,6.83
2017-11-21T00:26:22.260Z,6.86
2017-11-21T00:26:26.604Z,6.83
2017-11-21T00:26:30.838Z,6.81
2017-11-21T00:26:35.190Z,6.9
2017-11-21T00:26:39.436Z,6.86
2017-11-21T00:26:43.457Z,6.89
2017-11-21T00:26:47.712Z,6.91
2017-11-21T00:26:51.826Z,6.86
2017-11-21T00:26:55.856Z,6.76
2017-11-21T00:27:00.117Z,6.83
2017-11-21T00:27:04.365Z,6.82
2017-11-21T00:27:08.711Z,6.86
2017-11-21T00:27:13.073Z,6.87
2017-11-21T00:27:17.417Z,6.83
2017-11-21T00:27:21.766Z,6.9
2017-11-21T00:27:26.131Z,6.87
2017-11-21T00:27:30.279Z,6.83
2017-11-21T00:27:34.625Z,6.89
2017-11-21T00:27:38.982Z,6.81
2017-11-21T00:27:43.361Z,6.9
2017-11-21T00:27:47.728Z,6.86
2017-11-21T00:27:52.075Z,6.83
2017-11-21T00:27:56.310Z,6.82
2017-11-21T00:28:00.440Z,6.89
2017-11-21T00:28:04.692Z,6.91
2017-11-21T00:28:08.930Z,6.86
2017-11-21T00:28:13.292Z,6.83
2017-11-21T00:28:17.633Z,6.86
2017-11-21T00:28:21.649Z,6.86
2017-11-21T00:28:25.898Z,6.86
2017-11-21T00:28:30.173Z,6.87
2017-11-21T00:28:34.405Z,6.87
2017-11-21T00:28:38.645Z,6.86
2017-11-21T00:28:43.019Z,6.86
2017-11-21T00:28:47.162Z,6.83
2017-11-21T00:28:51.393Z,6.89
2017-11-21T00:28:55.633Z,6.86
2017-11-21T00:28:59.767Z,6.83
2017-11-21T00:29:04.100Z,6.82
2017-11-21T00:29:08.360Z,6.89
2017-11-21T00:29:12.490Z,7
2017-11-21T00:29:16.722Z,6.9
2017-11-21T00:29:20.866Z,6.89
2017-11-21T00:29:25.010Z,6.89
2017-11-21T00:29:29.358Z,6.9
2017-11-21T00:29:33.602Z,6.94
2017-11-21T00:29:37.619Z,6.89
2017-11-21T00:29:41.635Z,6.9
2017-11-21T00:29:45.981Z,6.87
2017-11-21T00:29:50.108Z,6.91
2017-11-21T00:29:54.353Z,6.83
2017-11-21T00:29:58.483Z,6.93
2017-11-21T00:30:02.688Z,6.9
2017-11-21T00:30:07.022Z,6.96
2017-11-21T00:30:11.277Z,6.91
2017-11-21T00:30:15.521Z,6.91
2017-11-21T00:30:19.761Z,6.86
2017-11-21T00:30:23.997Z,6.89
2017-11-21T00:30:28.344Z,6.9
2017-11-21T00:30:32.601Z,6.93
2017-11-21T00:30:36.735Z,6.82
2017-11-21T00:30:40.868Z,6.93
2017-11-21T00:30:44.906Z,6.86
2017-11-21T00:30:49.047Z,6.9
2017-11-21T00:30:53.071Z,6.93
2017-11-21T00:30:57.431Z,6.99
2017-11-21T00:31:01.795Z,6.89
2017-11-21T00:31:06.298Z,6.9
2017-11-21T00:31:10.641Z,6.97
2017-11-21T00:31:14.994Z,6.93
2017-11-21T00:31:19.336Z,6.9
2017-11-21T00:31:23.602Z,6.99
2017-11-21T00:31:27.833Z,6.94
2017-11-21T00:31:32.082Z,6.97
2017-11-21T00:31:36.319Z,6.96
2017-11-21T00:31:40.685Z,6.9
2017-11-21T00:31:44.932Z,6.93
2017-11-21T00:31:49.192Z,6.97
2017-11-21T00:31:53.439Z,6.87
2017-11-21T00:31:57.579Z,6.97
2017-11-21T00:32:02.078Z,6.99
2017-11-21T00:32:06.213Z,6.89
2017-11-21T00:32:10.472Z,6.96
2017-11-21T00:32:14.724Z,6.93
2017-11-21T00:32:19.073Z,6.9
2017-11-21T00:32:23.321Z,6.93
2017-11-21T00:32:27.569Z,6.93
2017-11-21T00:32:31.809Z,6.96
2017-11-21T00:32:35.946Z,6.99
2017-11-21T00:32:40.087Z,6.91
2017-11-21T00:32:44.361Z,6.99
2017-11-21T00:32:48.705Z,6.96
2017-11-21T00:32:53.060Z,6.97
2017-11-21T00:32:57.440Z,6.99
2017-11-21T00:33:01.808Z,7
2017-11-21T00:33:06.308Z,6.94
2017-11-21T00:33:10.570Z,6.93
2017-11-21T00:33:14.712Z,6.97
2017-11-21T00:33:18.949Z,7
2017-11-21T00:33:23.220Z,7
2017-11-21T00:33:27.463Z,6.99
2017-11-21T00:33:31.485Z,7.05
2017-11-21T00:33:35.736Z,6.99
2017-11-21T00:33:39.979Z,6.93
2017-11-21T00:33:44.348Z,7
2017-11-21T00:33:48.720Z,7.04
2017-11-21T00:33:52.859Z,6.99
2017-11-21T00:33:56.987Z,7.04
2017-11-21T00:34:01.003Z,7.01
2017-11-21T00:34:05.245Z,7.04
2017-11-21T00:34:09.267Z,7.01
2017-11-21T00:34:13.498Z,7.05
2017-11-21T00:34:17.743Z,7.04
2017-11-21T00:34:22.098Z,7.01
2017-11-21T00:34:26.343Z,7.05
2017-11-21T00:34:30.702Z,6.96
2017-11-21T00:34:34.938Z,7
2017-11-21T00:34:39.057Z,7.04
2017-11-21T00:34:43.293Z,7
2017-11-21T00:34:47.418Z,7.01
2017-11-21T00:34:51.821Z,7.04
2017-11-21T00:34:56.167Z,6.99
2017-11-21T00:35:00.313Z,7.05
2017-11-21T00:35:04.560Z,7.07
2017-11-21T00:35:08.699Z,6.99
2017-11-21T00:35:13.054Z,6.99
2017-11-21T00:35:17.298Z,7.05
2017-11-21T00:35:21.542Z,7.05
2017-11-21T00:35:25.888Z,7.08
2017-11-21T00:35:30.127Z,7.05
2017-11-21T00:35:34.489Z,7.05
2017-11-21T00:35:38.725Z,6.99
2017-11-21T00:35:43.079Z,7.05
2017-11-21T00:35:47.467Z,7.01
2017-11-21T00:35:51.814Z,6.97
2017-11-21T00:35:56.069Z,7.05
2017-11-21T00:36:00.222Z,7.05
2017-11-21T00:36:04.572Z,7
2017-11-21T00:36:08.817Z,7
2017-11-21T00:36:13.057Z,7.01
2017-11-21T00:36:17.408Z,7.07
2017-11-21T00:36:21.640Z,7
2017-11-21T00:36:25.995Z,6.97
2017-11-21T00:36:30.149Z,7.01
2017-11-21T00:36:34.381Z,7.04
2017-11-21T00:36:38.733Z,7.05
2017-11-21T00:36:43.002Z,7.01
2017-11-21T00:36:47.233Z,7.05
2017-11-21T00:36:51.465Z,7.05
2017-11-21T00:36:55.721Z,7.08
2017-11-21T00:37:00.006Z,7.07
2017-11-21T00:37:04.017Z,7.11
2017-11-21T00:37:08.379Z,7.01
2017-11-21T00:37:12.742Z,7.05
2017-11-21T00:37:16.980Z,7.09
2017-11-21T00:37:21.336Z,7.01
2017-11-21T00:37:25.728Z,7.01
2017-11-21T00:37:29.962Z,7.05
2017-11-21T00:37:33.858Z,7.01
2017-11-21T00:37:38.232Z,7.05
2017-11-21T00:37:42.341Z,7.04
2017-11-21T00:37:46.581Z,7.01
2017-11-21T00:37:50.817Z,7.04
2017-11-21T00:37:55.188Z,7.01
2017-11-21T00:37:59.315Z,6.99
2017-11-21T00:38:03.663Z,7.05
2017-11-21T00:38:07.906Z,7.07
2017-11-21T00:38:11.925Z,6.99
2017-11-21T00:38:16.164Z,7.01
2017-11-21T00:38:20.299Z,7.01
2017-11-21T00:38:24.648Z,7
2017-11-21T00:38:28.999Z,7.07
2017-11-21T00:38:33.265Z,7.05
2017-11-21T00:38:37.498Z,7.05
2017-11-21T00:38:41.755Z,7.08
2017-11-21T00:38:46.104Z,7.11
2017-11-21T00:38:50.247Z,7.09
2017-11-21T00:38:54.494Z,6.99
2017-11-21T00:38:58.622Z,7.04
2017-11-21T00:39:02.878Z,7
2017-11-21T00:39:07.120Z,7.05
2017-11-21T00:39:11.371Z,7.04
2017-11-21T00:39:15.506Z,7.01
2017-11-21T00:39:19.759Z,7.01
2017-11-21T00:39:24.106Z,7.04
2017-11-21T00:39:28.361Z,7.07
2017-11-21T00:39:32.710Z,7.07
2017-11-21T00:39:36.945Z,7.08
2017-11-21T00:39:41.326Z,7.07
2017-11-21T00:39:45.574Z,7.08
2017-11-21T00:39:49.692Z,7.05
2017-11-21T00:39:53.928Z,7.04
2017-11-21T00:39:58.292Z,7.08
2017-11-21T00:40:02.652Z,7.09
2017-11-21T00:40:06.670Z,7.09
2017-11-21T00:40:10.916Z,7.04
2017-11-21T00:40:14.929Z,7.09
2017-11-21T00:40:19.181Z,7.07
2017-11-21T00:40:23.434Z,7.05
2017-11-21T00:40:27.795Z,7.07
2017-11-21T00:40:32.156Z,7.07
2017-11-21T00:40:36.274Z,7.04
2017-11-21T00:40:40.526Z,7.05
2017-11-21T00:40:44.763Z,7.01
2017-11-21T00:40:49.109Z,7.08
2017-11-21T00:40:53.236Z,7.08
2017-11-21T00:40:57.522Z,7.04
2017-11-21T00:41:01.860Z,7.11
2017-11-21T00:41:05.876Z,7.08
2017-11-21T00:41:10.230Z,7.12
2017-11-21T00:41:14.350Z,7.04
2017-11-21T00:41:18.702Z,7.07
2017-11-21T00:41:23.065Z,7.04
2017-11-21T00:41:27.415Z,7.08
2017-11-21T00:41:31.442Z,7.04
2017-11-21T00:41:35.566Z,7.05
2017-11-21T00:41:39.813Z,7
2017-11-21T00:41:44.039Z,7.07
2017-11-21T00:41:48.291Z,7.11
2017-11-21T00:41:52.530Z,7.12
2017-11-21T00:41:56.771Z,7.08
2017-11-21T00:42:01.013Z,7.05
2017-11-21T00:42:05.266Z,7.12
2017-11-21T00:42:09.508Z,7.09
2017-11-21T00:42:13.748Z,7.08
2017-11-21T00:42:17.992Z,7.11
2017-11-21T00:42:22.337Z,7.09
2017-11-21T00:42:26.681Z,7.05
2017-11-21T00:42:31.045Z,7.09
2017-11-21T00:42:35.172Z,7.04
2017-11-21T00:42:39.535Z,7.08
2017-11-21T00:42:43.438Z,7.12
2017-11-21T00:42:47.791Z,7.09
2017-11-21T00:42:52.137Z,7.11
2017-11-21T00:42:56.378Z,7.11
2017-11-21T00:43:00.743Z,7.11
2017-11-21T00:43:05.118Z,7.09
2017-11-21T00:43:09.347Z,7.14
2017-11-21T00:43:13.700Z,7.12
2017-11-21T00:43:17.991Z,7.07
2017-11-21T00:43:22.343Z,7.12
2017-11-21T00:43:26.466Z,7.07
2017-11-21T00:43:30.734Z,7.09
2017-11-21T00:43:34.977Z,7.04
2017-11-21T00:43:39.209Z,7.11
2017-11-21T00:43:43.453Z,7.12
2017-11-21T00:43:47.703Z,7.07
2017-11-21T00:43:51.827Z,7.08
2017-11-21T00:43:55.853Z,7.07
2017-11-21T00:44:00.220Z,7.12
2017-11-21T00:44:04.575Z,7.07
2017-11-21T00:44:08.816Z,7.11
2017-11-21T00:44:13.089Z,7.14
2017-11-21T00:44:17.223Z,7.08
2017-11-21T00:44:21.472Z,7.07
2017-11-21T00:44:25.833Z,7.12
2017-11-21T00:44:30.173Z,7.09
2017-11-21T00:44:34.434Z,7.09
2017-11-21T00:44:38.811Z,7.07
2017-11-21T00:44:43.160Z,7.09
2017-11-21T00:44:47.406Z,7.09
2017-11-21T00:44:51.766Z,7.05
2017-11-21T00:44:56.129Z,7.09
2017-11-21T00:45:00.378Z,7.15
2017-11-21T00:45:04.932Z,7.07
2017-11-21T00:45:09.171Z,7.12
2017-11-21T00:45:13.298Z,7.19
2017-11-21T00:45:17.421Z,7.12
2017-11-21T00:45:21.662Z,7.18
2017-11-21T00:45:26.012Z,7.11
2017-11-21T00:45:30.259Z,7.07
2017-11-21T00:45:34.274Z,7.21
2017-11-21T00:45:38.401Z,7.19
2017-11-21T00:45:42.531Z,7.14
2017-11-21T00:45:46.665Z,7.07
2017-11-21T00:45:50.803Z,7.12
2017-11-21T00:45:54.923Z,7.16
2017-11-21T00:45:59.163Z,7.21
2017-11-21T00:46:03.302Z,7.15
2017-11-21T00:46:07.321Z,7.18
2017-11-21T00:46:11.671Z,7.19
2017-11-21T00:46:16.046Z,7.19
2017-11-21T00:46:20.201Z,7.19
2017-11-21T00:46:24.562Z,7.14
2017-11-21T00:46:28.814Z,7.21
2017-11-21T00:46:32.836Z,7.23
2017-11-21T00:46:37.200Z,7.19
2017-11-21T00:46:41.444Z,7.24
2017-11-21T00:46:45.688Z,7.21
2017-11-21T00:46:49.927Z,7.21
2017-11-21T00:46:54.169Z,7.18
2017-11-21T00:46:58.409Z,7.21
2017-11-21T00:47:02.755Z,7.16
2017-11-21T00:47:07.012Z,7.26
2017-11-21T00:47:11.367Z,7.19
2017-11-21T00:47:15.625Z,7.23
2017-11-21T00:47:19.751Z,7.23
2017-11-21T00:47:24.108Z,7.18
2017-11-21T00:47:28.472Z,7.23
2017-11-21T00:47:32.817Z,7.24
2017-11-21T00:47:36.956Z,7.18
2017-11-21T00:47:41.312Z,7.19
2017-11-21T00:47:45.709Z,7.19
2017-11-21T00:47:50.056Z,7.29
2017-11-21T00:47:54.300Z,7.23
2017-11-21T00:47:58.657Z,7.29
2017-11-21T00:48:03.059Z,7.26
2017-11-21T00:48:07.408Z,7.16
2017-11-21T00:48:11.429Z,7.23
2017-11-21T00:48:15.778Z,7.21
2017-11-21T00:48:20.020Z,7.26
2017-11-21T00:48:24.265Z,7.23
2017-11-21T00:48:28.634Z,7.18
2017-11-21T00:48:32.866Z,7.23
2017-11-21T00:48:36.996Z,7.18
2017-11-21T00:48:41.342Z,7.24
2017-11-21T00:48:45.588Z,7.21
2017-11-21T00:48:49.843Z,7.23
2017-11-21T00:48:54.210Z,7.27
2017-11-21T00:48:58.563Z,7.19
2017-11-21T00:49:02.812Z,7.19
2017-11-21T00:49:07.164Z,7.21
2017-11-21T00:49:11.183Z,7.24
2017-11-21T00:49:15.550Z,7.23
2017-11-21T00:49:19.892Z,7.18
2017-11-21T00:49:24.022Z,7.19
2017-11-21T00:49:28.379Z,7.29
2017-11-21T00:49:32.628Z,7.24
2017-11-21T00:49:36.646Z,7.27
2017-11-21T00:49:40.784Z,7.29
2017-11-21T00:49:45.017Z,7.21
2017-11-21T00:49:49.358Z,7.3
2017-11-21T00:49:53.383Z,7.19
2017-11-21T00:49:57.530Z,7.24
2017-11-21T00:50:02.063Z,7.24
2017-11-21T00:50:06.198Z,7.21
2017-11-21T00:50:10.456Z,7.26
2017-11-21T00:50:14.477Z,7.24
2017-11-21T00:50:18.730Z,7.18
2017-11-21T00:50:23.009Z,7.19
2017-11-21T00:50:27.360Z,7.19
2017-11-21T00:50:31.595Z,7.26
2017-11-21T00:50:35.738Z,7.18
2017-11-21T00:50:40.097Z,7.24
2017-11-21T00:50:44.366Z,7.26
2017-11-21T00:50:48.607Z,7.23
2017-11-21T00:50:52.856Z,7.24
2017-11-21T00:50:56.982Z,7.29
2017-11-21T00:51:01.227Z,7.21
2017-11-21T00:51:05.497Z,7.26
2017-11-21T00:51:09.759Z,7.23
2017-11-21T00:51:14.108Z,7.27
2017-11-21T00:51:18.370Z,7.19
2017-11-21T00:51:22.751Z,7.24
2017-11-21T00:51:26.888Z,7.24
2017-11-21T00:51:31.148Z,7.33
2017-11-21T00:51:35.412Z,7.3
2017-11-21T00:51:39.662Z,7.26
2017-11-21T00:51:43.820Z,7.24
2017-11-21T00:51:48.076Z,7.24
2017-11-21T00:51:52.331Z,7.29
2017-11-21T00:51:56.679Z,7.24
2017-11-21T00:52:00.813Z,7.24
2017-11-21T00:52:05.187Z,7.29
2017-11-21T00:52:09.323Z,7.23
2017-11-21T00:52:13.463Z,7.18
2017-11-21T00:52:17.817Z,7.21
2017-11-21T00:52:22.067Z,7.3
2017-11-21T00:52:26.186Z,7.27
2017-11-21T00:52:30.552Z,7.19
2017-11-21T00:52:34.910Z,7.21
2017-11-21T00:52:39.148Z,7.23
2017-11-21T00:52:43.283Z,7.19
2017-11-21T00:52:47.534Z,7.26
2017-11-21T00:52:51.774Z,7.21
2017-11-21T00:52:56.017Z,7.23
2017-11-21T00:53:00.387Z,7.27
2017-11-21T00:53:04.829Z,7.32
2017-11-21T00:53:09.180Z,7.26
2017-11-21T00:53:13.548Z,7.27
2017-11-21T00:53:17.794Z,7.33
2017-11-21T00:53:22.147Z,7.26
2017-11-21T00:53:26.384Z,7.27
2017-11-21T00:53:30.514Z,7.33
2017-11-21T00:53:34.754Z,7.29
2017-11-21T00:53:38.879Z,7.3
2017-11-21T00:53:43.119Z,7.29
2017-11-21T00:53:47.484Z,7.19
2017-11-21T00:53:51.847Z,7.24
2017-11-21T00:53:56.095Z,7.21
2017-11-21T00:54:00.119Z,7.24
2017-11-21T00:54:04.769Z,7.29
2017-11-21T00:54:09.006Z,7.33
2017-11-21T00:54:13.261Z,7.32
2017-11-21T00:54:17.605Z,7.3
2017-11-21T00:54:21.851Z,7.32
2017-11-21T00:54:26.216Z,7.26
2017-11-21T00:54:30.455Z,7.26
2017-11-21T00:54:34.576Z,7.3
2017-11-21T00:54:38.694Z,7.18
2017-11-21T00:54:42.938Z,7.26
2017-11-21T00:54:47.174Z,7.26
2017-11-21T00:54:51.301Z,7.34
2017-11-21T00:54:55.665Z,7.33
2017-11-21T00:54:59.672Z,7.24
2017-11-21T00:55:04.156Z,7.23
2017-11-21T00:55:08.414Z,7.33
2017-11-21T00:55:12.764Z,7.26
2017-11-21T00:55:17.108Z,7.26
2017-11-21T00:55:21.455Z,7.24
2017-11-21T00:55:25.819Z,7.3
2017-11-21T00:55:30.057Z,7.34
2017-11-21T00:55:34.069Z,7.34
2017-11-21T00:55:38.198Z,7.34
2017-11-21T00:55:42.430Z,7.3
2017-11-21T00:55:46.778Z,7.3
2017-11-21T00:55:51.125Z,7.23
2017-11-21T00:55:55.482Z,7.32
2017-11-21T00:55:59.605Z,7.33
2017-11-21T00:56:03.729Z,7.34
2017-11-21T00:56:07.743Z,7.24
2017-11-21T00:56:12.092Z,7.3
2017-11-21T00:56:16.321Z,7.33
2017-11-21T00:56:20.675Z,7.29
2017-11-21T00:56:24.924Z,7.3
2017-11-21T00:56:29.046Z,7.34
2017-11-21T00:56:33.398Z,7.36
2017-11-21T00:56:37.530Z,7.34
2017-11-21T00:56:41.871Z,7.32
2017-11-21T00:56:46.216Z,7.3